OIFS  Shahrekord  Airport

Shahrekord, Iran

Add Bookmark
ICAO OIFS
IATA CQD
Type Airport
Status Operational
Latitude
32° 17' 49" N
32.297199
Longitude
50° 50' 31" E
50.842201
Local (GMT +3.5 ) UTC
Dec 7, 2016 05:52 pm Dec 7, 2016 14:22
Sunrise-Sunset Local UTC
Begin Civil Twilight 06:26 am 02:56
Sunrise 06:53 am 03:23
Sunset 05:02 pm 13:32
End Civil Twilight 05:29 pm 13:59
VFR
VFR
MVFR
MVFR
IFR
IFR
LIFR
LIFR
Unknown
No Data

Current Weather

METAR Observed VFR
OIFS 071400Z 27010KT 9999 FEW040 08/M05 Q1023 Wed, Dec 7, 2016 @ 14:00 UTC
(22 Minutes ago)
Visual Flight Rules
Wind Visibility Clouds Conditions
270° at 10 knots (19 kph) 10 km or more
  • Few at 4,000 ft AGL
  • No significant weather
Temperatures Readings Precipitation
Current Temp
8°C
46°F
Dewpoint
-5°C
23°F
Humidity 40%
Altimeter 30.21" Hg
Sea Level Pressure 1,023 mb
Field Elevation
2,078 m
6,818 ft
None Recorded
-
-

CheckWX.com is intended as a tool to help pilots better visualize weather data. It is not intended as a substitute for an official weather briefing obtained from a Flight Service Station. CheckWX.com does not meet the FAA requirements for an official pre-flight weather briefing. Therefore, it's important that pilots still call and obtain an official FSS pre-flight weather briefing.

© 2007-2016 CheckWX.com
14:22:54 UTC